createdAt,value
2022-09-26T00:04:29.081Z,99274.57
2022-09-26T00:09:34.371Z,99265.88
2022-09-26T00:14:36.794Z,99267.11
2022-09-26T00:19:39.243Z,99262.14
2022-09-26T00:24:41.713Z,99259.58
2022-09-26T00:29:44.099Z,99257.47
2022-09-26T00:34:46.498Z,99255.63
2022-09-26T00:39:48.897Z,99251.51
2022-09-26T00:44:54.558Z,99249.36
2022-09-26T00:50:02.225Z,99254.20
2022-09-26T00:55:06.126Z,99252.21
2022-09-26T01:00:10.240Z,99253.10
2022-09-26T01:05:14.410Z,99249.13
2022-09-26T01:10:17.029Z,99244.51
2022-09-26T01:16:13.564Z,99245.46
2022-09-26T01:21:28.334Z,99235.34
2022-09-26T01:26:34.265Z,99232.89
2022-09-26T01:31:38.613Z,99232.84
2022-09-26T01:36:44.442Z,99225.33
2022-09-26T01:41:56.782Z,99216.61
2022-09-26T01:47:00.135Z,99211.11
2022-09-26T01:52:05.748Z,99207.80
2022-09-26T01:57:11.001Z,99197.48
2022-09-26T02:02:19.261Z,99193.80
2022-09-26T02:07:26.028Z,99191.09
2022-09-26T02:12:32.810Z,99187.58
2022-09-26T02:17:39.562Z,99184.67
2022-09-26T02:22:42.213Z,99182.09
2022-09-26T02:27:44.627Z,99179.33
2022-09-26T02:32:47.086Z,99181.61
2022-09-26T02:37:49.504Z,99179.49
2022-09-26T02:43:01.799Z,99179.21
2022-09-26T02:48:14.125Z,99178.67
2022-09-26T02:53:26.842Z,99171.96
2022-09-26T02:58:38.834Z,99166.94
2022-09-26T03:03:48.064Z,99165.41
2022-09-26T03:08:51.855Z,99159.84
2022-09-26T03:13:56.078Z,99159.84
2022-09-26T03:19:01.292Z,99150.73
2022-09-26T03:24:03.848Z,99141.81
2022-09-26T03:29:06.506Z,99139.85
2022-09-26T03:34:09.028Z,99141.84
2022-09-26T03:39:11.637Z,99138.38
2022-09-26T03:44:15.713Z,99140.52
2022-09-26T03:49:18.146Z,99133.98
2022-09-26T03:54:20.579Z,99129.42
2022-09-26T03:59:23.035Z,99132.77
2022-09-26T04:04:25.883Z,99132.39
2022-09-26T04:09:28.377Z,99130.31
2022-09-26T04:14:31.561Z,99124.23
2022-09-26T04:19:33.992Z,99112.56
2022-09-26T04:24:36.703Z,99112.44
2022-09-26T04:29:39.163Z,99114.89
2022-09-26T04:34:41.567Z,99110.30
2022-09-26T04:39:43.954Z,99109.45
2022-09-26T04:44:48.114Z,99112.64
2022-09-26T04:49:50.612Z,99118.74
2022-09-26T04:54:53.120Z,99118.08
2022-09-26T05:00:14.368Z,99115.96
2022-09-26T05:05:16.845Z,99118.09
2022-09-26T05:10:19.433Z,99110.33
2022-09-26T05:15:21.878Z,99103.31
2022-09-26T05:20:24.577Z,99100.23
2022-09-26T05:25:32.195Z,99102.48
2022-09-26T05:30:35.027Z,99104.04
2022-09-26T05:40:21.247Z,99103.66
2022-09-26T05:45:23.794Z,99094.70
2022-09-26T05:50:26.219Z,99088.29
2022-09-26T05:55:29.290Z,99092.58
2022-09-26T06:00:31.752Z,99093.65
2022-09-26T06:05:34.611Z,99092.11
2022-09-26T06:10:38.645Z,99096.62
2022-09-26T06:15:43.132Z,99102.88
2022-09-26T06:20:45.550Z,99098.75
2022-09-26T06:25:48.018Z,99093.28
2022-09-26T06:30:50.434Z,99083.31
2022-09-26T06:35:55.756Z,99086.79
2022-09-26T06:40:58.248Z,99084.13
2022-09-26T06:46:00.929Z,99075.55
2022-09-26T06:51:03.747Z,99076.86
2022-09-26T06:56:06.501Z,99080.48
2022-09-26T07:01:09.140Z,99076.37
2022-09-26T07:06:11.661Z,99072.30
2022-09-26T07:16:37.452Z,99068.12
2022-09-26T07:21:39.949Z,99066.38
2022-09-26T07:26:42.403Z,99062.02
2022-09-26T07:31:45.407Z,99067.77
2022-09-26T07:36:47.871Z,99064.41
2022-09-26T07:41:50.458Z,99060.91
2022-09-26T07:46:55.850Z,99068.41
2022-09-26T07:52:00.574Z,99067.15
2022-09-26T07:57:04.811Z,99073.15
2022-09-26T08:02:20.782Z,99071.05
2022-09-26T08:07:24.532Z,99069.10
2022-09-26T08:12:27.110Z,99073.02
2022-09-26T08:17:32.428Z,99080.73
2022-09-26T08:22:34.862Z,99075.73
2022-09-26T08:27:37.327Z,99072.65
2022-09-26T08:32:39.736Z,99078.09
2022-09-26T08:37:42.134Z,99079.05
2022-09-26T08:42:45.972Z,99077.71
2022-09-26T08:47:53.227Z,99076.11
2022-09-26T08:53:01.440Z,99073.46
2022-09-26T08:58:08.338Z,99070.81
2022-09-26T09:03:12.901Z,99065.35
2022-09-26T09:08:36.790Z,99066.61
2022-09-26T09:13:46.108Z,99067.50
2022-09-26T09:18:48.641Z,99066.09
2022-09-26T09:23:57.618Z,99052.70
2022-09-26T09:29:01.001Z,99048.93
2022-09-26T09:34:06.726Z,99046.50
2022-09-26T09:39:13.401Z,99041.83
2022-09-26T09:44:25.481Z,99035.39
2022-09-26T09:49:28.023Z,99029.48
2022-09-26T09:54:33.399Z,99024.40
2022-09-26T09:59:38.757Z,99024.14
2022-09-26T10:04:44.368Z,99024.81
2022-09-26T10:09:51.763Z,99030.04
2022-09-26T10:15:17.294Z,99032.21
2022-09-26T10:20:40.741Z,99031.02
2022-09-26T10:25:47.101Z,99032.91
2022-09-26T10:30:50.629Z,99029.77
2022-09-26T10:35:59.528Z,99030.73
2022-09-26T10:41:03.408Z,99031.86
2022-09-26T10:46:06.130Z,99023.73
2022-09-26T10:51:09.597Z,99018.02
2022-09-26T10:56:16.847Z,99013.36
2022-09-26T11:01:22.823Z,99011.95
2022-09-26T11:06:28.218Z,99010.94
2022-09-26T11:11:33.675Z,99010.79
2022-09-26T11:16:38.675Z,99009.41
2022-09-26T11:21:42.138Z,99014.95
2022-09-26T11:26:49.074Z,99008.44
2022-09-26T11:31:52.015Z,99008.96
2022-09-26T11:36:58.485Z,99007.05
2022-09-26T11:42:03.976Z,99004.23
2022-09-26T11:47:09.446Z,99002.77
2022-09-26T11:52:14.465Z,99003.63
2022-09-26T11:57:21.418Z,99002.02
2022-09-26T12:02:26.912Z,99001.98
2022-09-26T12:07:32.766Z,98997.11
2022-09-26T12:12:41.811Z,98990.95
2022-09-26T12:17:47.815Z,98992.75
2022-09-26T12:22:55.967Z,98989.02
2022-09-26T12:28:09.129Z,98984.13
2022-09-26T12:33:14.648Z,98982.38
2022-09-26T12:38:20.434Z,98978.73
2022-09-26T12:43:31.461Z,98977.33
2022-09-26T12:48:37.751Z,98969.08
2022-09-26T12:53:43.074Z,98965.77
2022-09-26T12:59:06.943Z,98964.84
2022-09-26T13:04:11.733Z,98966.63
2022-09-26T13:09:15.972Z,98961.63
2022-09-26T13:14:27.525Z,98955.61
2022-09-26T13:19:34.582Z,98957.38
2022-09-26T13:24:40.957Z,98958.58
2022-09-26T13:29:46.142Z,98954.21
2022-09-26T13:34:51.677Z,98953.71
2022-09-26T13:39:59.926Z,98950.98
2022-09-26T13:45:05.278Z,98943.49
2022-09-26T13:50:12.591Z,98942.54
2022-09-26T13:55:19.234Z,98930.89
2022-09-26T14:00:29.787Z,98938.09
2022-09-26T14:05:35.119Z,98929.15
2022-09-26T14:10:39.670Z,98931.20
2022-09-26T14:15:45.050Z,98925.23
2022-09-26T14:20:55.002Z,98924.91
2022-09-26T14:26:04.830Z,98919.20
2022-09-26T14:31:11.402Z,98915.45
2022-09-26T14:36:16.794Z,98916.75
2022-09-26T14:41:20.775Z,98911.52
2022-09-26T14:46:24.285Z,98906.64
2022-09-26T14:51:30.357Z,98905.28
2022-09-26T14:56:41.172Z,98909.16
2022-09-26T15:01:44.385Z,98908.34
2022-09-26T15:06:48.764Z,98910.88
2022-09-26T15:11:55.153Z,98903.67
2022-09-26T15:16:59.086Z,98895.66
2022-09-26T15:22:04.523Z,98897.07
2022-09-26T15:27:11.018Z,98891.34
2022-09-26T15:32:19.915Z,98894.88
2022-09-26T15:37:23.443Z,98891.37
2022-09-26T15:42:28.822Z,98893.75
2022-09-26T15:47:31.715Z,98891.77
2022-09-26T15:52:35.139Z,98884.81
2022-09-26T15:57:37.627Z,98886.52
2022-09-26T16:02:40.920Z,98891.22
2022-09-26T16:07:47.828Z,98888.83
2022-09-26T16:12:50.340Z,98887.85
2022-09-26T16:17:53.987Z,98880.23
2022-09-26T16:23:04.360Z,98879.39
2022-09-26T16:28:10.260Z,98877.27
2022-09-26T16:33:15.980Z,98875.19
2022-09-26T16:38:22.496Z,98870.96
2022-09-26T16:43:27.126Z,98868.02
2022-09-26T16:48:32.482Z,98865.73
2022-09-26T16:53:34.971Z,98873.89
2022-09-26T16:58:37.404Z,98873.14
2022-09-26T17:03:42.357Z,98873.05
2022-09-26T17:08:44.744Z,98879.52
2022-09-26T17:13:49.404Z,98876.65
2022-09-26T17:18:51.840Z,98871.95
2022-09-26T17:23:54.332Z,98872.63
2022-09-26T17:28:58.063Z,98877.02
2022-09-26T17:34:01.963Z,98874.30
2022-09-26T17:39:07.699Z,98869.74
2022-09-26T17:44:10.200Z,98866.98
2022-09-26T17:49:13.659Z,98864.86
2022-09-26T17:54:17.589Z,98865.95
2022-09-26T17:59:23.174Z,98866.88
2022-09-26T18:04:27.239Z,98864.92
2022-09-26T18:09:32.321Z,98869.11
2022-09-26T18:14:35.379Z,98867.23
2022-09-26T18:19:38.177Z,98862.90
2022-09-26T18:24:41.475Z,98861.96
2022-09-26T18:29:47.222Z,98855.79
2022-09-26T18:34:49.651Z,98851.71
2022-09-26T18:39:55.737Z,98850.06
2022-09-26T18:45:04.237Z,98858.39
2022-09-26T18:50:07.082Z,98856.41
2022-09-26T18:55:19.904Z,98854.73
2022-09-26T19:00:22.334Z,98856.24
2022-09-26T19:05:26.164Z,98854.49
2022-09-26T19:10:29.489Z,98850.55
2022-09-26T19:15:32.055Z,98854.23
2022-09-26T19:20:34.521Z,98854.15
2022-09-26T19:25:37.243Z,98854.89
2022-09-26T19:30:39.902Z,98846.05
2022-09-26T19:35:42.746Z,98841.88
2022-09-26T19:40:48.831Z,98839.00
2022-09-26T19:45:53.565Z,98842.23
2022-09-26T19:50:56.127Z,98836.25
2022-09-26T19:56:00.334Z,98836.56
2022-09-26T20:01:11.573Z,98842.69
2022-09-26T20:06:46.357Z,98844.40
2022-09-26T20:11:48.862Z,98841.34
2022-09-26T20:17:03.103Z,98838.73
2022-09-26T20:22:07.406Z,98836.85
2022-09-26T20:27:15.239Z,98833.27
2022-09-26T20:32:17.727Z,98827.37
2022-09-26T20:37:21.124Z,98823.56
2022-09-26T20:42:27.942Z,98828.88
2022-09-26T20:47:31.125Z,98838.73
2022-09-26T20:52:33.587Z,98845.95
2022-09-26T20:57:36.206Z,98846.82
2022-09-26T21:02:39.237Z,98841.48
2022-09-26T21:07:41.942Z,98842.73
2022-09-26T21:12:44.330Z,98831.92
2022-09-26T21:17:47.351Z,98835.02
2022-09-26T21:22:50.436Z,98836.33
2022-09-26T21:27:57.245Z,98833.77
2022-09-26T21:33:00.092Z,98829.15
2022-09-26T21:38:02.680Z,98822.40
2022-09-26T21:43:08.854Z,98818.25
2022-09-26T21:48:12.240Z,98807.27
2022-09-26T21:53:16.904Z,98804.53
2022-09-26T21:58:22.382Z,98806.41
2022-09-26T22:03:24.763Z,98807.91
2022-09-26T22:08:27.187Z,98803.09
2022-09-26T22:13:29.902Z,98798.17
2022-09-26T22:18:32.933Z,98795.60
2022-09-26T22:23:35.509Z,98789.65
2022-09-26T22:28:38.007Z,98775.23
2022-09-26T22:33:43.465Z,98768.54
2022-09-26T22:38:46.239Z,98763.27
2022-09-26T22:43:49.187Z,98759.30
2022-09-26T22:48:51.855Z,98752.65
2022-09-26T22:53:54.390Z,98755.05
2022-09-26T22:58:56.821Z,98753.88
2022-09-26T23:04:00.305Z,98754.20
2022-09-26T23:09:02.783Z,98745.84
2022-09-26T23:14:05.225Z,98741.48
2022-09-26T23:19:07.668Z,98735.23
2022-09-26T23:24:10.067Z,98726.02
2022-09-26T23:29:13.252Z,98728.33
2022-09-26T23:34:15.684Z,98724.96
2022-09-26T23:39:18.663Z,98717.36
2022-09-26T23:44:21.098Z,98710.65
2022-09-26T23:49:23.527Z,98716.09
2022-09-26T23:54:25.923Z,98722.50
2022-09-26T23:59:28.377Z,98732.16
